sim
Sign-in with your pilot id or email,
or register
Callsign
Passwort

Schedule Details

Flight Number: DLH1993 (2)
Departure: Cologne Bonn Airport (EDDK) at 19:35
Arrival: Munich Airport (EDDM) at 20:40
Route: Lufthansa Passenger Schedule. Enter filed route here before submitting Pirep.

Weather Information
Getting current METAR information for EDDK 231020Z VRB07KT CAVOK 23/09 Q1006 NOSIG
Getting current METAR information for EDDM 231020Z 26010KT 9000 -SHRA FEW007 FEW015TCU BKN032 15/14 Q1010 NOSIG

Schedule Frequency

Route Map